Qiryat Motzkin, Israel
Current Conditions -  °F | °C
As of 7:00 PM on Sunday 23 Nov 2014 (Local Time) from LLHA Reporting Station
Light Rain Light Rain  
Wind Chill: 59°   Ceiling: 4000
Heat Index: 59°   Visibility: 6mi
Dew Point: 55°   Wind: 3mph
Humidity: 88%   Direction: NA
Pressure: 29.94"   Gusts: NA
Location:  32.82°N, 35.06°E
Report Text: LLHA 231600Z VRB03KT 9999 -RA FEW025 BKN040 15/13 Q1014 RERA
Loading
Personal Weather Stations






























Interactive Weather Map New forecast layout! Learn more

10-Day Weather Forecast

Advertisements
Track Severe Weather on mobile